sensor_id;sensor_type;location;lat;lon;timestamp;pressure;altitude;pressure_sealevel;temperature;humidity
10482;BME280;5288;42.334;23.876;2023-05-02T00:01:18;56339.94;;;-140.56;77.37
10482;BME280;5288;42.334;23.876;2023-05-02T00:03:45;56365.66;;;-140.56;77.60
10482;BME280;5288;42.334;23.876;2023-05-02T00:06:12;56341.94;;;-140.56;77.09
10482;BME280;5288;42.334;23.876;2023-05-02T00:08:41;56361.69;;;-140.56;76.56
10482;BME280;5288;42.334;23.876;2023-05-02T00:11:08;56345.88;;;-140.56;76.14
10482;BME280;5288;42.334;23.876;2023-05-02T00:13:35;56363.66;;;-140.56;76.06
10482;BME280;5288;42.334;23.876;2023-05-02T00:16:02;56324.13;;;-140.56;75.70
10482;BME280;5288;42.334;23.876;2023-05-02T00:18:29;56361.69;;;-140.56;75.78
10482;BME280;5288;42.334;23.876;2023-05-02T00:20:56;56367.63;;;-140.56;76.24
10482;BME280;5288;42.334;23.876;2023-05-02T00:23:23;56369.59;;;-140.56;75.58
10482;BME280;5288;42.334;23.876;2023-05-02T00:25:51;56341.94;;;-140.56;75.22
10482;BME280;5288;42.334;23.876;2023-05-02T00:28:18;56330.06;;;-140.56;75.02
10482;BME280;5288;42.334;23.876;2023-05-02T00:30:46;56377.50;;;-140.56;75.10
10482;BME280;5288;42.334;23.876;2023-05-02T00:33:13;56375.53;;;-140.56;75.02
10482;BME280;5288;42.334;23.876;2023-05-02T00:35:40;56320.19;;;-140.56;75.19
10482;BME280;5288;42.334;23.876;2023-05-02T00:38:07;56353.78;;;-140.56;75.17
10482;BME280;5288;42.334;23.876;2023-05-02T00:40:44;56369.59;;;-140.56;74.86
10482;BME280;5288;42.334;23.876;2023-05-02T00:43:13;56375.53;;;-140.56;74.63
10482;BME280;5288;42.334;23.876;2023-05-02T00:45:41;56365.66;;;-140.56;74.27
10482;BME280;5288;42.334;23.876;2023-05-02T00:48:09;56351.81;;;-140.56;74.47
10482;BME280;5288;42.334;23.876;2023-05-02T00:50:37;56341.94;;;-140.56;74.69
10482;BME280;5288;42.334;23.876;2023-05-02T00:53:05;56345.88;;;-140.56;75.27
10482;BME280;5288;42.334;23.876;2023-05-02T00:55:33;56353.78;;;-140.56;75.64
10482;BME280;5288;42.334;23.876;2023-05-02T00:58:01;56351.81;;;-140.56;75.28
10482;BME280;5288;42.334;23.876;2023-05-02T01:00:40;56353.78;;;-140.56;75.12
10482;BME280;5288;42.334;23.876;2023-05-02T01:03:19;56351.81;;;-140.56;75.57
10482;BME280;5288;42.334;23.876;2023-05-02T01:05:56;56385.41;;;-140.56;76.46
10482;BME280;5288;42.334;23.876;2023-05-02T01:08:33;56381.44;;;-140.56;76.03
10482;BME280;5288;42.334;23.876;2023-05-02T01:11:04;56343.91;;;-140.56;76.43
10482;BME280;5288;42.334;23.876;2023-05-02T01:13:38;56334.03;;;-140.56;76.25
10482;BME280;5288;42.334;23.876;2023-05-02T01:16:09;56391.34;;;-140.56;76.30
10482;BME280;5288;42.334;23.876;2023-05-02T01:18:39;56371.56;;;-140.56;76.27
10482;BME280;5288;42.334;23.876;2023-05-02T01:21:09;56389.34;;;-140.56;75.76
10482;BME280;5288;42.334;23.876;2023-05-02T01:23:45;56373.56;;;-140.56;76.09
10482;BME280;5288;42.334;23.876;2023-05-02T01:26:26;56365.66;;;-140.56;75.93
10482;BME280;5288;42.334;23.876;2023-05-02T01:28:58;56353.78;;;-140.56;76.32
10482;BME280;5288;42.334;23.876;2023-05-02T01:31:28;56369.59;;;-140.56;76.01
10482;BME280;5288;42.334;23.876;2023-05-02T01:33:58;56381.44;;;-140.56;76.46
10482;BME280;5288;42.334;23.876;2023-05-02T01:36:28;56359.72;;;-140.56;76.46
10482;BME280;5288;42.334;23.876;2023-05-02T01:38:57;56351.81;;;-140.56;76.39
10482;BME280;5288;42.334;23.876;2023-05-02T01:41:26;56361.69;;;-140.56;76.47
10482;BME280;5288;42.334;23.876;2023-05-02T01:43:56;56395.28;;;-140.56;76.39
10482;BME280;5288;42.334;23.876;2023-05-02T01:46:26;56387.38;;;-140.56;76.54
10482;BME280;5288;42.334;23.876;2023-05-02T01:48:56;56385.41;;;-140.56;77.16
10482;BME280;5288;42.334;23.876;2023-05-02T01:51:27;56379.47;;;-140.56;76.65
10482;BME280;5288;42.334;23.876;2023-05-02T01:53:58;56345.88;;;-140.56;76.63
10482;BME280;5288;42.334;23.876;2023-05-02T01:56:28;56357.75;;;-140.56;76.69
10482;BME280;5288;42.334;23.876;2023-05-02T01:59:00;56383.44;;;-140.56;77.90
10482;BME280;5288;42.334;23.876;2023-05-02T02:01:29;56379.47;;;-140.56;78.38
10482;BME280;5288;42.334;23.876;2023-05-02T02:03:57;56389.34;;;-140.56;78.67
10482;BME280;5288;42.334;23.876;2023-05-02T02:06:25;56324.13;;;-140.56;78.50
10482;BME280;5288;42.334;23.876;2023-05-02T02:08:53;56371.56;;;-140.56;78.18
10482;BME280;5288;42.334;23.876;2023-05-02T02:11:25;56357.75;;;-140.56;78.45
10482;BME280;5288;42.334;23.876;2023-05-02T02:13:58;56391.34;;;-140.56;78.62
10482;BME280;5288;42.334;23.876;2023-05-02T02:16:30;56355.75;;;-140.56;77.86
10482;BME280;5288;42.334;23.876;2023-05-02T02:19:03;56377.50;;;-140.56;77.66
10482;BME280;5288;42.334;23.876;2023-05-02T02:21:33;56375.53;;;-140.56;77.97
10482;BME280;5288;42.334;23.876;2023-05-02T02:24:04;56409.13;;;-140.56;78.53
10482;BME280;5288;42.334;23.876;2023-05-02T02:26:32;56363.66;;;-140.56;78.37
10482;BME280;5288;42.334;23.876;2023-05-02T02:29:00;56393.31;;;-140.56;78.10
10482;BME280;5288;42.334;23.876;2023-05-02T02:31:31;56411.09;;;-140.56;77.73
10482;BME280;5288;42.334;23.876;2023-05-02T02:33:59;56373.56;;;-140.56;77.25
10482;BME280;5288;42.334;23.876;2023-05-02T02:36:32;56379.47;;;-140.56;77.11
10482;BME280;5288;42.334;23.876;2023-05-02T02:39:11;56373.56;;;-140.56;77.35
10482;BME280;5288;42.334;23.876;2023-05-02T02:41:49;56395.28;;;-140.56;76.86
10482;BME280;5288;42.334;23.876;2023-05-02T02:44:31;56355.75;;;-140.56;76.59
10482;BME280;5288;42.334;23.876;2023-05-02T02:47:06;56349.84;;;-140.56;76.77
10482;BME280;5288;42.334;23.876;2023-05-02T02:49:45;56353.78;;;-140.56;76.83
10482;BME280;5288;42.334;23.876;2023-05-02T02:52:20;56369.59;;;-140.56;76.29
10482;BME280;5288;42.334;23.876;2023-05-02T02:54:52;56399.25;;;-140.56;77.00
10482;BME280;5288;42.334;23.876;2023-05-02T02:57:26;56424.94;;;-140.56;76.57
10482;BME280;5288;42.334;23.876;2023-05-02T02:59:58;56359.72;;;-140.56;75.95
10482;BME280;5288;42.334;23.876;2023-05-02T03:02:33;56377.50;;;-140.56;75.99
10482;BME280;5288;42.334;23.876;2023-05-02T03:05:01;56349.84;;;-140.56;76.39
10482;BME280;5288;42.334;23.876;2023-05-02T03:07:30;56403.19;;;-140.56;76.41
10482;BME280;5288;42.334;23.876;2023-05-02T03:09:58;56387.38;;;-140.56;76.30
10482;BME280;5288;42.334;23.876;2023-05-02T03:12:25;56389.34;;;-140.56;76.47
10482;BME280;5288;42.334;23.876;2023-05-02T03:14:52;56417.03;;;-140.56;76.49
10482;BME280;5288;42.334;23.876;2023-05-02T03:17:21;56375.53;;;-140.56;77.78
10482;BME280;5288;42.334;23.876;2023-05-02T03:19:49;56363.66;;;-140.56;78.44
10482;BME280;5288;42.334;23.876;2023-05-02T03:22:16;56377.50;;;-140.56;78.26
10482;BME280;5288;42.334;23.876;2023-05-02T03:24:43;56409.13;;;-140.56;78.27
10482;BME280;5288;42.334;23.876;2023-05-02T03:27:10;56373.56;;;-140.56;79.05
10482;BME280;5288;42.334;23.876;2023-05-02T03:29:37;56383.44;;;-140.56;78.85
10482;BME280;5288;42.334;23.876;2023-05-02T03:32:04;56379.47;;;-140.56;78.57
10482;BME280;5288;42.334;23.876;2023-05-02T03:34:31;56359.72;;;-140.56;78.30
10482;BME280;5288;42.334;23.876;2023-05-02T03:37:00;56379.47;;;-140.56;78.37
10482;BME280;5288;42.334;23.876;2023-05-02T03:39:27;56377.50;;;-140.56;78.94
10482;BME280;5288;42.334;23.876;2023-05-02T03:41:53;56389.34;;;-140.56;78.94
10482;BME280;5288;42.334;23.876;2023-05-02T03:44:20;56407.16;;;-140.56;79.73
10482;BME280;5288;42.334;23.876;2023-05-02T03:46:48;56371.56;;;-140.56;80.64
10482;BME280;5288;42.334;23.876;2023-05-02T03:49:15;56379.47;;;-140.56;81.25
10482;BME280;5288;42.334;23.876;2023-05-02T03:51:44;56369.59;;;-140.56;81.63
10482;BME280;5288;42.334;23.876;2023-05-02T03:54:12;56403.19;;;-140.56;81.54
10482;BME280;5288;42.334;23.876;2023-05-02T03:56:39;56381.44;;;-140.56;81.31
10482;BME280;5288;42.334;23.876;2023-05-02T03:59:06;56361.69;;;-140.56;81.48
10482;BME280;5288;42.334;23.876;2023-05-02T04:01:33;56375.53;;;-140.56;81.19
10482;BME280;5288;42.334;23.876;2023-05-02T04:04:00;56361.69;;;-140.56;81.12
10482;BME280;5288;42.334;23.876;2023-05-02T04:06:27;56417.03;;;-140.56;80.81
10482;BME280;5288;42.334;23.876;2023-05-02T04:08:54;56361.69;;;-140.56;80.93
10482;BME280;5288;42.334;23.876;2023-05-02T04:11:25;56375.53;;;-140.56;81.02
10482;BME280;5288;42.334;23.876;2023-05-02T04:13:52;56391.34;;;-140.56;80.97
10482;BME280;5288;42.334;23.876;2023-05-02T04:16:19;56385.41;;;-140.56;80.93
10482;BME280;5288;42.334;23.876;2023-05-02T04:18:47;56377.50;;;-140.56;81.05
10482;BME280;5288;42.334;23.876;2023-05-02T04:21:14;56401.22;;;-140.56;81.71
10482;BME280;5288;42.334;23.876;2023-05-02T04:23:41;56381.44;;;-140.56;81.54
10482;BME280;5288;42.334;23.876;2023-05-02T04:26:08;56389.34;;;-140.56;81.72
10482;BME280;5288;42.334;23.876;2023-05-02T04:28:36;56399.25;;;-140.56;82.30
10482;BME280;5288;42.334;23.876;2023-05-02T04:31:03;56379.47;;;-140.56;82.38
10482;BME280;5288;42.334;23.876;2023-05-02T04:33:30;56371.56;;;-140.56;82.98
10482;BME280;5288;42.334;23.876;2023-05-02T04:35:57;56377.50;;;-140.56;83.15
10482;BME280;5288;42.334;23.876;2023-05-02T04:38:25;56391.34;;;-140.56;83.45
10482;BME280;5288;42.334;23.876;2023-05-02T04:40:52;56411.09;;;-140.56;83.07
10482;BME280;5288;42.334;23.876;2023-05-02T04:43:19;56417.03;;;-140.56;83.08
10482;BME280;5288;42.334;23.876;2023-05-02T04:45:47;56367.63;;;-140.56;83.23
10482;BME280;5288;42.334;23.876;2023-05-02T04:48:14;56391.34;;;-140.56;82.83
10482;BME280;5288;42.334;23.876;2023-05-02T04:50:41;56401.22;;;-140.56;81.91
10482;BME280;5288;42.334;23.876;2023-05-02T04:53:10;56365.66;;;-140.56;81.24
10482;BME280;5288;42.334;23.876;2023-05-02T04:55:37;56375.53;;;-140.56;79.89
10482;BME280;5288;42.334;23.876;2023-05-02T04:58:04;56357.75;;;-140.56;79.08
10482;BME280;5288;42.334;23.876;2023-05-02T05:00:31;56349.84;;;-140.56;78.39
10482;BME280;5288;42.334;23.876;2023-05-02T05:02:59;56365.66;;;-140.56;77.08
10482;BME280;5288;42.334;23.876;2023-05-02T05:05:26;56318.22;;;-140.56;76.04
10482;BME280;5288;42.334;23.876;2023-05-02T05:07:53;56345.88;;;-140.56;74.37
10482;BME280;5288;42.334;23.876;2023-05-02T05:10:20;56308.34;;;-140.56;72.71
10482;BME280;5288;42.334;23.876;2023-05-02T05:12:47;56316.25;;;-140.56;71.12
10482;BME280;5288;42.334;23.876;2023-05-02T05:15:15;56310.31;;;-140.56;68.50
10482;BME280;5288;42.334;23.876;2023-05-02T05:17:42;56318.22;;;-140.56;67.00
10482;BME280;5288;42.334;23.876;2023-05-02T05:20:11;56310.31;;;-140.56;65.54
10482;BME280;5288;42.334;23.876;2023-05-02T05:22:38;56341.94;;;-140.56;65.47
10482;BME280;5288;42.334;23.876;2023-05-02T05:25:06;56278.69;;;-140.56;65.37
10482;BME280;5288;42.334;23.876;2023-05-02T05:27:33;56334.03;;;-140.56;65.24
10482;BME280;5288;42.334;23.876;2023-05-02T05:30:01;56292.53;;;-140.56;64.40
10482;BME280;5288;42.334;23.876;2023-05-02T05:32:28;56312.28;;;-140.56;63.31
10482;BME280;5288;42.334;23.876;2023-05-02T05:34:55;56330.06;;;-140.56;62.52
10482;BME280;5288;42.334;23.876;2023-05-02T05:37:23;56300.44;;;-140.56;61.19
10482;BME280;5288;42.334;23.876;2023-05-02T05:39:50;56282.63;;;-140.56;60.23
10482;BME280;5288;42.334;23.876;2023-05-02T05:42:17;56304.38;;;-140.56;59.07
10482;BME280;5288;42.334;23.876;2023-05-02T05:44:44;56282.63;;;-140.56;58.22
10482;BME280;5288;42.334;23.876;2023-05-02T05:47:11;56304.38;;;-140.56;57.93
10482;BME280;5288;42.334;23.876;2023-05-02T05:49:40;56282.63;;;-140.56;58.43
10482;BME280;5288;42.334;23.876;2023-05-02T05:52:07;56294.50;;;-140.56;58.46
10482;BME280;5288;42.334;23.876;2023-05-02T05:54:35;56324.13;;;-140.56;56.58
10482;BME280;5288;42.334;23.876;2023-05-02T05:57:02;56254.97;;;-140.56;57.14
10482;BME280;5288;42.334;23.876;2023-05-02T05:59:29;56284.63;;;-140.56;55.47
10482;BME280;5288;42.334;23.876;2023-05-02T06:01:56;56286.59;;;-140.56;55.75
10482;BME280;5288;42.334;23.876;2023-05-02T06:04:24;56276.72;;;-140.56;55.21
10482;BME280;5288;42.334;23.876;2023-05-02T06:06:51;56266.81;;;-140.56;54.86
10482;BME280;5288;42.334;23.876;2023-05-02T06:09:19;56286.59;;;-140.56;54.57
10482;BME280;5288;42.334;23.876;2023-05-02T06:11:47;56254.97;;;-140.56;55.13
10482;BME280;5288;42.334;23.876;2023-05-02T06:14:14;56266.81;;;-140.56;53.31
10482;BME280;5288;42.334;23.876;2023-05-02T06:16:41;56278.69;;;-140.56;53.87
10482;BME280;5288;42.334;23.876;2023-05-02T06:19:08;56260.91;;;-140.56;52.39
10482;BME280;5288;42.334;23.876;2023-05-02T06:21:35;56260.91;;;-140.56;51.65
10482;BME280;5288;42.334;23.876;2023-05-02T06:24:02;56251.03;;;-140.56;51.27
10482;BME280;5288;42.334;23.876;2023-05-02T06:26:29;56256.94;;;-140.56;51.57
10482;BME280;5288;42.334;23.876;2023-05-02T06:28:58;56253.00;;;-140.56;51.08
10482;BME280;5288;42.334;23.876;2023-05-02T06:31:25;56258.94;;;-140.56;49.92
10482;BME280;5288;42.334;23.876;2023-05-02T06:33:52;56243.13;;;-140.56;49.65
10482;BME280;5288;42.334;23.876;2023-05-02T06:36:20;56258.94;;;-140.56;50.15
10482;BME280;5288;42.334;23.876;2023-05-02T06:38:47;56225.31;;;-140.56;50.15
10482;BME280;5288;42.334;23.876;2023-05-02T06:41:14;56237.19;;;-140.56;49.07
10482;BME280;5288;42.334;23.876;2023-05-02T06:43:41;56207.53;;;-140.56;48.74
10482;BME280;5288;42.334;23.876;2023-05-02T06:46:09;56237.19;;;-140.56;48.53
10482;BME280;5288;42.334;23.876;2023-05-02T06:48:36;56199.63;;;-140.56;48.84
10482;BME280;5288;42.334;23.876;2023-05-02T06:51:03;56227.31;;;-140.56;49.74
10482;BME280;5288;42.334;23.876;2023-05-02T06:53:30;56195.69;;;-140.56;49.07
10482;BME280;5288;42.334;23.876;2023-05-02T06:55:57;56213.47;;;-140.56;49.03
10482;BME280;5288;42.334;23.876;2023-05-02T06:58:24;56193.72;;;-140.56;48.81
10482;BME280;5288;42.334;23.876;2023-05-02T07:00:51;56223.34;;;-140.56;48.79
10482;BME280;5288;42.334;23.876;2023-05-02T07:03:19;56227.31;;;-140.56;48.78
10482;BME280;5288;42.334;23.876;2023-05-02T07:05:46;56175.91;;;-140.56;49.72
10482;BME280;5288;42.334;23.876;2023-05-02T07:08:13;56203.59;;;-140.56;48.22
10482;BME280;5288;42.334;23.876;2023-05-02T07:10:40;56211.50;;;-140.56;48.28
10482;BME280;5288;42.334;23.876;2023-05-02T07:13:07;56225.31;;;-140.56;46.88
10482;BME280;5288;42.334;23.876;2023-05-02T07:15:34;56189.75;;;-140.56;47.91
10482;BME280;5288;42.334;23.876;2023-05-02T07:18:01;56201.63;;;-140.56;46.67
10482;BME280;5288;42.334;23.876;2023-05-02T07:20:29;56209.50;;;-140.56;47.13
10482;BME280;5288;42.334;23.876;2023-05-02T07:22:57;56189.75;;;-140.56;46.69
10482;BME280;5288;42.334;23.876;2023-05-02T07:25:23;56211.50;;;-140.56;46.13
10482;BME280;5288;42.334;23.876;2023-05-02T07:27:51;56164.06;;;-140.56;46.14
10482;BME280;5288;42.334;23.876;2023-05-02T07:30:18;56177.91;;;-140.56;46.36
10482;BME280;5288;42.334;23.876;2023-05-02T07:32:45;56181.84;;;-140.56;45.38
10482;BME280;5288;42.334;23.876;2023-05-02T07:35:14;56170.00;;;-140.56;44.13
10482;BME280;5288;42.334;23.876;2023-05-02T07:37:42;56177.91;;;-140.56;42.32
10482;BME280;5288;42.334;23.876;2023-05-02T07:40:09;56207.53;;;-140.56;44.26
10482;BME280;5288;42.334;23.876;2023-05-02T07:42:36;56164.06;;;-140.56;42.47
10482;BME280;5288;42.334;23.876;2023-05-02T07:45:06;56168.00;;;-140.56;42.71
10482;BME280;5288;42.334;23.876;2023-05-02T07:47:33;56170.00;;;-140.56;43.37
10482;BME280;5288;42.334;23.876;2023-05-02T07:50:01;56175.91;;;-140.56;42.44
10482;BME280;5288;42.334;23.876;2023-05-02T07:52:29;56136.41;;;-140.56;41.53
10482;BME280;5288;42.334;23.876;2023-05-02T07:54:57;56144.31;;;-140.56;41.56
10482;BME280;5288;42.334;23.876;2023-05-02T07:57:25;56148.25;;;-140.56;40.92
10482;BME280;5288;42.334;23.876;2023-05-02T07:59:52;56164.06;;;-140.56;41.53
10482;BME280;5288;42.334;23.876;2023-05-02T08:02:21;56160.13;;;-140.56;41.04
10482;BME280;5288;42.334;23.876;2023-05-02T08:04:48;56112.69;;;-140.56;40.71
10482;BME280;5288;42.334;23.876;2023-05-02T08:07:15;56152.22;;;-140.56;40.99
10482;BME280;5288;42.334;23.876;2023-05-02T08:09:42;56164.06;;;-140.56;40.08
10482;BME280;5288;42.334;23.876;2023-05-02T08:12:11;56134.41;;;-140.56;39.78
10482;BME280;5288;42.334;23.876;2023-05-02T08:14:37;56142.31;;;-140.56;39.79
10482;BME280;5288;42.334;23.876;2023-05-02T08:17:04;56162.09;;;-140.56;40.37
10482;BME280;5288;42.334;23.876;2023-05-02T08:19:31;56130.47;;;-140.56;40.65
10482;BME280;5288;42.334;23.876;2023-05-02T08:21:58;56130.47;;;-140.56;39.39
10482;BME280;5288;42.334;23.876;2023-05-02T08:24:25;56124.53;;;-140.56;39.05
10482;BME280;5288;42.334;23.876;2023-05-02T08:26:52;56118.59;;;-140.56;38.95
10482;BME280;5288;42.334;23.876;2023-05-02T08:29:22;56092.91;;;-140.56;38.78
10482;BME280;5288;42.334;23.876;2023-05-02T08:31:49;56128.50;;;-140.56;38.09
10482;BME280;5288;42.334;23.876;2023-05-02T08:34:16;56120.59;;;-140.56;38.56
10482;BME280;5288;42.334;23.876;2023-05-02T08:36:43;56116.63;;;-140.56;38.21
10482;BME280;5288;42.334;23.876;2023-05-02T08:39:10;56134.41;;;-140.56;37.58
10482;BME280;5288;42.334;23.876;2023-05-02T08:41:37;56100.81;;;-140.56;37.74
10482;BME280;5288;42.334;23.876;2023-05-02T08:44:05;56098.84;;;-140.56;37.58
10482;BME280;5288;42.334;23.876;2023-05-02T08:46:35;56098.84;;;-140.56;37.60
10482;BME280;5288;42.334;23.876;2023-05-02T08:49:06;56124.53;;;-140.56;37.25
10482;BME280;5288;42.334;23.876;2023-05-02T08:51:36;56104.78;;;-140.56;37.62
10482;BME280;5288;42.334;23.876;2023-05-02T08:54:04;56142.31;;;-140.56;36.36
10482;BME280;5288;42.334;23.876;2023-05-02T08:56:34;56148.25;;;-140.56;37.27
10482;BME280;5288;42.334;23.876;2023-05-02T08:59:01;56122.56;;;-140.56;38.03
10482;BME280;5288;42.334;23.876;2023-05-02T09:01:29;56102.81;;;-140.56;36.47
10482;BME280;5288;42.334;23.876;2023-05-02T09:03:58;56079.09;;;-140.56;36.59
10482;BME280;5288;42.334;23.876;2023-05-02T09:06:25;56096.88;;;-140.56;37.03
10482;BME280;5288;42.334;23.876;2023-05-02T09:08:53;56112.69;;;-140.56;36.60
10482;BME280;5288;42.334;23.876;2023-05-02T09:11:21;56100.81;;;-140.56;36.12
10482;BME280;5288;42.334;23.876;2023-05-02T09:13:48;56085.00;;;-140.56;35.90
10482;BME280;5288;42.334;23.876;2023-05-02T09:16:17;56057.34;;;-140.56;36.65
10482;BME280;5288;42.334;23.876;2023-05-02T09:18:48;56079.09;;;-140.56;35.43
10482;BME280;5288;42.334;23.876;2023-05-02T09:21:18;56081.06;;;-140.56;36.13
10482;BME280;5288;42.334;23.876;2023-05-02T09:23:47;56106.75;;;-140.56;35.99
10482;BME280;5288;42.334;23.876;2023-05-02T09:26:18;56087.00;;;-140.56;36.74
10482;BME280;5288;42.334;23.876;2023-05-02T09:28:47;56057.34;;;-140.56;36.10
10482;BME280;5288;42.334;23.876;2023-05-02T09:31:15;56108.72;;;-140.56;36.16
10482;BME280;5288;42.334;23.876;2023-05-02T09:33:43;56102.81;;;-140.56;34.61
10482;BME280;5288;42.334;23.876;2023-05-02T09:36:12;56090.94;;;-140.56;35.28
10482;BME280;5288;42.334;23.876;2023-05-02T09:38:41;56063.28;;;-140.56;35.90
10482;BME280;5288;42.334;23.876;2023-05-02T09:41:09;56094.91;;;-140.56;35.52
10482;BME280;5288;42.334;23.876;2023-05-02T09:43:36;56063.28;;;-140.56;35.45
10482;BME280;5288;42.334;23.876;2023-05-02T09:46:05;56090.94;;;-140.56;35.43
10482;BME280;5288;42.334;23.876;2023-05-02T09:51:16;56079.09;;;-140.56;34.44
10482;BME280;5288;42.334;23.876;2023-05-02T09:53:45;56055.38;;;-140.56;34.32
10482;BME280;5288;42.334;23.876;2023-05-02T09:56:12;56122.56;;;-140.56;35.45
10482;BME280;5288;42.334;23.876;2023-05-02T09:58:39;56098.84;;;-140.56;36.38
10482;BME280;5288;42.334;23.876;2023-05-02T10:01:06;56081.06;;;-140.56;35.69
10482;BME280;5288;42.334;23.876;2023-05-02T10:03:36;56088.97;;;-140.56;35.22
10482;BME280;5288;42.334;23.876;2023-05-02T10:06:04;56067.22;;;-140.56;34.42
10482;BME280;5288;42.334;23.876;2023-05-02T10:08:34;56085.00;;;-140.56;34.62
10482;BME280;5288;42.334;23.876;2023-05-02T10:11:05;56069.22;;;-140.56;35.44
10482;BME280;5288;42.334;23.876;2023-05-02T10:13:33;56055.38;;;-140.56;34.57
10482;BME280;5288;42.334;23.876;2023-05-02T10:16:05;56041.53;;;-140.56;35.30
10482;BME280;5288;42.334;23.876;2023-05-02T10:18:39;56071.19;;;-140.56;34.11
10482;BME280;5288;42.334;23.876;2023-05-02T10:21:09;56035.63;;;-140.56;34.60
10482;BME280;5288;42.334;23.876;2023-05-02T10:23:40;56047.47;;;-140.56;35.38
10482;BME280;5288;42.334;23.876;2023-05-02T10:26:09;56047.47;;;-140.56;34.92
10482;BME280;5288;42.334;23.876;2023-05-02T10:28:39;56061.31;;;-140.56;34.78
10482;BME280;5288;42.334;23.876;2023-05-02T10:31:08;56071.19;;;-140.56;34.84
10482;BME280;5288;42.334;23.876;2023-05-02T10:33:37;56073.16;;;-140.56;35.34
10482;BME280;5288;42.334;23.876;2023-05-02T10:36:07;56031.66;;;-140.56;34.99
10482;BME280;5288;42.334;23.876;2023-05-02T10:38:34;56051.41;;;-140.56;34.43
10482;BME280;5288;42.334;23.876;2023-05-02T10:41:07;56005.97;;;-140.56;34.98
10482;BME280;5288;42.334;23.876;2023-05-02T10:43:37;56015.84;;;-140.56;33.64
10482;BME280;5288;42.334;23.876;2023-05-02T10:46:28;56033.63;;;-140.56;34.08
10482;BME280;5288;42.334;23.876;2023-05-02T10:49:03;56029.69;;;-140.56;33.98
10482;BME280;5288;42.334;23.876;2023-05-02T10:51:30;56019.81;;;-140.56;35.10
10482;BME280;5288;42.334;23.876;2023-05-02T10:54:19;56039.56;;;-140.56;34.43
10482;BME280;5288;42.334;23.876;2023-05-02T10:57:10;56063.28;;;-140.56;34.65
10482;BME280;5288;42.334;23.876;2023-05-02T10:59:40;56023.75;;;-140.56;35.26
10482;BME280;5288;42.334;23.876;2023-05-02T11:05:07;56025.72;;;-140.56;33.63
10482;BME280;5288;42.334;23.876;2023-05-02T11:07:35;56002.00;;;-140.56;34.78
10482;BME280;5288;42.334;23.876;2023-05-02T11:10:24;55998.06;;;-140.56;33.77
10482;BME280;5288;42.334;23.876;2023-05-02T11:12:53;56055.38;;;-140.56;33.97
10482;BME280;5288;42.334;23.876;2023-05-02T11:15:56;56039.56;;;-140.56;34.59
10482;BME280;5288;42.334;23.876;2023-05-02T11:18:24;56033.63;;;-140.56;33.98
10482;BME280;5288;42.334;23.876;2023-05-02T11:20:51;56005.97;;;-140.56;33.92
10482;BME280;5288;42.334;23.876;2023-05-02T11:23:24;56031.66;;;-140.56;32.28
10482;BME280;5288;42.334;23.876;2023-05-02T11:25:57;56011.91;;;-140.56;32.16
10482;BME280;5288;42.334;23.876;2023-05-02T11:28:41;56037.59;;;-140.56;32.52
10482;BME280;5288;42.334;23.876;2023-05-02T11:34:29;56013.88;;;-140.56;32.73
10482;BME280;5288;42.334;23.876;2023-05-02T11:37:10;56009.91;;;-140.56;32.23
10482;BME280;5288;42.334;23.876;2023-05-02T11:39:37;56047.47;;;-140.56;30.95
10482;BME280;5288;42.334;23.876;2023-05-02T11:42:05;56002.00;;;-140.56;31.16
10482;BME280;5288;42.334;23.876;2023-05-02T11:44:32;56013.88;;;-140.56;32.47
10482;BME280;5288;42.334;23.876;2023-05-02T11:47:00;55978.31;;;-140.56;31.70
10482;BME280;5288;42.334;23.876;2023-05-02T11:49:30;56007.94;;;-140.56;30.84
10482;BME280;5288;42.334;23.876;2023-05-02T11:51:58;55990.16;;;-140.56;31.49
10482;BME280;5288;42.334;23.876;2023-05-02T11:54:25;56037.59;;;-140.56;32.56
10482;BME280;5288;42.334;23.876;2023-05-02T11:56:52;55996.09;;;-140.56;30.86
10482;BME280;5288;42.334;23.876;2023-05-02T11:59:19;56027.72;;;-140.56;31.01
10482;BME280;5288;42.334;23.876;2023-05-02T12:01:49;56025.72;;;-140.56;31.23
10482;BME280;5288;42.334;23.876;2023-05-02T12:04:18;56005.97;;;-140.56;31.29
10482;BME280;5288;42.334;23.876;2023-05-02T12:06:56;56015.84;;;-140.56;31.57
10482;BME280;5288;42.334;23.876;2023-05-02T12:09:23;56025.72;;;-140.56;31.42
10482;BME280;5288;42.334;23.876;2023-05-02T12:11:51;55982.25;;;-140.56;30.84
10482;BME280;5288;42.334;23.876;2023-05-02T12:14:26;55996.09;;;-140.56;31.58
10482;BME280;5288;42.334;23.876;2023-05-02T12:16:53;56007.94;;;-140.56;31.54
10482;BME280;5288;42.334;23.876;2023-05-02T12:19:20;56013.88;;;-140.56;30.49
10482;BME280;5288;42.334;23.876;2023-05-02T12:21:48;56011.91;;;-140.56;30.32
10482;BME280;5288;42.334;23.876;2023-05-02T12:24:17;55974.34;;;-140.56;31.54
10482;BME280;5288;42.334;23.876;2023-05-02T12:26:44;55970.41;;;-140.56;31.07
10482;BME280;5288;42.334;23.876;2023-05-02T12:29:11;55948.66;;;-140.56;31.28
10482;BME280;5288;42.334;23.876;2023-05-02T12:31:38;55956.56;;;-140.56;30.67
10482;BME280;5288;42.334;23.876;2023-05-02T12:34:05;55970.41;;;-140.56;30.70
10482;BME280;5288;42.334;23.876;2023-05-02T12:36:32;55950.63;;;-140.56;30.31
10482;BME280;5288;42.334;23.876;2023-05-02T12:39:00;55980.28;;;-140.56;30.06
10482;BME280;5288;42.334;23.876;2023-05-02T12:41:34;55966.44;;;-140.56;30.42
10482;BME280;5288;42.334;23.876;2023-05-02T12:44:02;56011.91;;;-140.56;30.21
10482;BME280;5288;42.334;23.876;2023-05-02T12:46:30;56005.97;;;-140.56;29.67
10482;BME280;5288;42.334;23.876;2023-05-02T12:49:04;55954.59;;;-140.56;29.99
10482;BME280;5288;42.334;23.876;2023-05-02T12:51:32;55992.13;;;-140.56;30.53
10482;BME280;5288;42.334;23.876;2023-05-02T12:53:59;55982.25;;;-140.56;30.50
10482;BME280;5288;42.334;23.876;2023-05-02T12:56:26;55994.13;;;-140.56;30.49
10482;BME280;5288;42.334;23.876;2023-05-02T12:58:58;55980.28;;;-140.56;30.01